Time;durP1;ratioP1;P1;durP2;ratioP2;P2;SDS_P1;SDS_P2;PMS_P1;PMS_P2;Temp;Humidity;BMP_temperature;BMP_pressure;BME280_temperature;BME280_humidity;BME280_pressure;Samples;Min_cycle;Max_cycle;Signal;HPM_P1;HPM_P2
2023/04/12 00:00:38;;;;;;;5.30;3.50;;;;;;;-128.00;-1.00;-1.00;18463;298;7505744;-31
2023/04/12 00:03:04;;;;;;;5.10;3.90;;;;;;;-128.00;-1.00;-1.00;18866;321;7504510;-31
2023/04/12 00:05:31;;;;;;;11.30;2.70;;;;;;;-128.00;-1.00;-1.00;18851;333;7504611;-34
2023/04/12 00:07:59;;;;;;;2.50;1.80;;;;;;;-128.00;-1.00;-1.00;18862;298;7505690;-34
2023/04/12 00:10:25;;;;;;;3.50;2.40;;;;;;;-128.00;-1.00;-1.00;18483;298;7506032;-30
2023/04/12 00:12:51;;;;;;;5.00;2.80;;;;;;;-128.00;-1.00;-1.00;18852;309;7504381;-30
2023/04/12 00:15:18;;;;;;;5.80;2.70;;;;;;;-128.00;-1.00;-1.00;18849;299;7504816;-33
2023/04/12 00:17:45;;;;;;;4.60;3.10;;;;;;;-128.00;-1.00;-1.00;18869;297;7504463;-34
2023/04/12 00:20:11;;;;;;;6.90;2.90;;;;;;;-128.00;-1.00;-1.00;18483;298;7505361;-31
2023/04/12 00:22:37;;;;;;;7.80;4.30;;;;;;;-128.00;-1.00;-1.00;18454;297;7506217;-31
2023/04/12 00:25:04;;;;;;;6.40;4.20;;;;;;;-128.00;-1.00;-1.00;18461;298;7507083;-33
2023/04/12 00:27:29;;;;;;;8.10;4.40;;;;;;;-128.00;-1.00;-1.00;18451;298;7504434;-30
2023/04/12 00:29:55;;;;;;;3.70;2.80;;;;;;;-128.00;-1.00;-1.00;18439;298;7505462;-30
2023/04/12 00:32:21;;;;;;;5.50;3.40;;;;;;;-128.00;-1.00;-1.00;18863;342;7504458;-31
2023/04/12 00:34:47;;;;;;;4.90;2.90;;;;;;;-128.00;-1.00;-1.00;18849;349;7504437;-33
2023/04/12 00:37:13;;;;;;;8.40;5.30;;;;;;;-128.00;-1.00;-1.00;18869;339;7505146;-34
2023/04/12 00:39:40;;;;;;;8.50;5.10;;;;;;;-128.00;-1.00;-1.00;18872;321;7505632;-32
2023/04/12 00:42:06;;;;;;;12.30;5.80;;;;;;;-128.00;-1.00;-1.00;18853;298;7505271;-29
2023/04/12 00:44:32;;;;;;;9.10;4.70;;;;;;;-128.00;-1.00;-1.00;18853;298;7504671;-30
2023/04/12 00:46:58;;;;;;;11.70;5.70;;;;;;;-128.00;-1.00;-1.00;18852;286;7504293;-33
2023/04/12 00:49:29;;;;;;;11.10;5.40;;;;;;;-128.00;-1.00;-1.00;18864;298;7504115;-33
2023/04/12 00:52:02;;;;;;;8.70;5.00;;;;;;;-128.00;-1.00;-1.00;18463;297;7504246;-30
2023/04/12 00:54:28;;;;;;;10.30;3.90;;;;;;;-128.00;-1.00;-1.00;18451;289;7504441;-33
2023/04/12 00:56:56;;;;;;;10.80;5.80;;;;;;;-128.00;-1.00;-1.00;18473;338;7504954;-30
2023/04/12 00:59:22;;;;;;;10.10;4.40;;;;;;;-128.00;-1.00;-1.00;18487;298;7505092;-31
2023/04/12 01:01:48;;;;;;;5.70;2.60;;;;;;;-128.00;-1.00;-1.00;18458;349;7505324;-33
2023/04/12 01:04:14;;;;;;;8.50;4.60;;;;;;;-128.00;-1.00;-1.00;18469;298;7504573;-30
2023/04/12 01:06:51;;;;;;;6.10;3.50;;;;;;;-128.00;-1.00;-1.00;18866;297;7505385;-34
2023/04/12 01:09:30;;;;;;;6.60;2.40;;;;;;;-128.00;-1.00;-1.00;18474;297;7504696;-33
2023/04/12 01:12:14;;;;;;;9.30;4.40;;;;;;;-128.00;-1.00;-1.00;18462;297;7506052;-33
2023/04/12 01:14:51;;;;;;;9.70;4.60;;;;;;;-128.00;-1.00;-1.00;18476;298;7504775;-34
2023/04/12 01:17:19;;;;;;;8.30;3.80;;;;;;;-128.00;-1.00;-1.00;18505;298;7504387;-29
2023/04/12 01:20:15;;;;;;;17.80;4.10;;;;;;;-128.00;-1.00;-1.00;18447;297;7505659;-34
2023/04/12 01:23:03;;;;;;;14.20;4.00;;;;;;;-128.00;-1.00;-1.00;18463;347;7504552;-33
2023/04/12 01:25:38;;;;;;;9.60;3.10;;;;;;;-128.00;-1.00;-1.00;18485;299;7505823;-30
2023/04/12 01:28:04;;;;;;;2.70;1.10;;;;;;;-128.00;-1.00;-1.00;18455;297;7504283;-35
2023/04/12 01:30:30;;;;;;;4.20;2.80;;;;;;;-128.00;-1.00;-1.00;18476;298;7504190;-31
2023/04/12 01:32:56;;;;;;;3.90;2.30;;;;;;;-128.00;-1.00;-1.00;18492;297;7504147;-33
2023/04/12 01:35:25;;;;;;;6.30;3.60;;;;;;;-128.00;-1.00;-1.00;18467;298;7505229;-30
2023/04/12 01:37:51;;;;;;;6.70;3.30;;;;;;;-128.00;-1.00;-1.00;18465;298;7505053;-29
2023/04/12 01:40:17;;;;;;;3.90;2.60;;;;;;;-128.00;-1.00;-1.00;18460;289;7506415;-33
2023/04/12 01:42:42;;;;;;;7.80;3.20;;;;;;;-128.00;-1.00;-1.00;18472;338;7505079;-30
2023/04/12 01:45:09;;;;;;;6.40;3.50;;;;;;;-128.00;-1.00;-1.00;18865;298;7504583;-33
2023/04/12 01:47:35;;;;;;;8.00;4.40;;;;;;;-128.00;-1.00;-1.00;18462;298;7504689;-34
2023/04/12 01:50:23;;;;;;;5.90;3.50;;;;;;;-128.00;-1.00;-1.00;18455;341;7504462;-35
2023/04/12 01:52:58;;;;;;;4.50;2.50;;;;;;;-128.00;-1.00;-1.00;18482;297;7505390;-33
2023/04/12 01:55:24;;;;;;;3.60;1.90;;;;;;;-128.00;-1.00;-1.00;18475;299;7504831;-31
2023/04/12 01:57:49;;;;;;;12.20;2.80;;;;;;;-128.00;-1.00;-1.00;18479;297;7506210;-31
2023/04/12 02:00:16;;;;;;;7.40;3.70;;;;;;;-128.00;-1.00;-1.00;18460;338;7504817;-34
2023/04/12 02:02:42;;;;;;;4.20;3.50;;;;;;;-128.00;-1.00;-1.00;18481;297;7504898;-31
2023/04/12 02:05:08;;;;;;;9.90;2.90;;;;;;;-128.00;-1.00;-1.00;18472;313;7504773;-34
2023/04/12 02:07:34;;;;;;;5.00;3.10;;;;;;;-128.00;-1.00;-1.00;18477;297;7505767;-34
2023/04/12 02:10:00;;;;;;;5.90;2.90;;;;;;;-128.00;-1.00;-1.00;18475;297;7505138;-30
2023/04/12 02:12:26;;;;;;;5.80;3.20;;;;;;;-128.00;-1.00;-1.00;18451;349;7506619;-30
2023/04/12 02:14:52;;;;;;;5.30;3.10;;;;;;;-128.00;-1.00;-1.00;18840;297;7504608;-31
2023/04/12 02:17:18;;;;;;;8.00;3.30;;;;;;;-128.00;-1.00;-1.00;18895;298;7504432;-34
2023/04/12 02:19:46;;;;;;;11.00;3.90;;;;;;;-128.00;-1.00;-1.00;18880;298;7505137;-33
2023/04/12 02:22:12;;;;;;;2.50;1.60;;;;;;;-128.00;-1.00;-1.00;18434;299;7504181;-34
2023/04/12 02:24:38;;;;;;;4.00;2.80;;;;;;;-128.00;-1.00;-1.00;18477;297;7504370;-34
2023/04/12 02:27:04;;;;;;;9.40;3.10;;;;;;;-128.00;-1.00;-1.00;18454;302;7505776;-31
2023/04/12 02:29:30;;;;;;;2.50;1.60;;;;;;;-128.00;-1.00;-1.00;18455;349;7504110;-34
2023/04/12 02:31:56;;;;;;;5.00;3.20;;;;;;;-128.00;-1.00;-1.00;18482;297;7505332;-31
2023/04/12 02:34:22;;;;;;;5.40;2.70;;;;;;;-128.00;-1.00;-1.00;18891;297;7504845;-34
2023/04/12 02:36:49;;;;;;;4.10;1.90;;;;;;;-128.00;-1.00;-1.00;18868;305;7505191;-34
2023/04/12 02:39:20;;;;;;;1.70;1.40;;;;;;;-128.00;-1.00;-1.00;18484;297;7504093;-34
2023/04/12 02:41:46;;;;;;;2.00;1.30;;;;;;;-128.00;-1.00;-1.00;18473;298;7506720;-34
2023/04/12 02:44:12;;;;;;;5.90;3.60;;;;;;;-128.00;-1.00;-1.00;18472;297;7504747;-35
2023/04/12 02:46:38;;;;;;;5.60;3.50;;;;;;;-128.00;-1.00;-1.00;18873;298;7504809;-33
2023/04/12 02:49:04;;;;;;;5.90;2.30;;;;;;;-128.00;-1.00;-1.00;18881;297;7504790;-30
2023/04/12 02:51:31;;;;;;;6.70;4.70;;;;;;;-128.00;-1.00;-1.00;18866;298;7504133;-33
2023/04/12 02:53:57;;;;;;;9.90;4.80;;;;;;;-128.00;-1.00;-1.00;18874;341;7504707;-33
2023/04/12 02:56:23;;;;;;;6.60;3.00;;;;;;;-128.00;-1.00;-1.00;18866;298;7506003;-34
2023/04/12 02:58:49;;;;;;;13.80;4.60;;;;;;;-128.00;-1.00;-1.00;18874;349;7504221;-33
2023/04/12 03:01:16;;;;;;;11.60;5.10;;;;;;;-128.00;-1.00;-1.00;18878;297;7504340;-34
2023/04/12 03:03:42;;;;;;;6.80;3.70;;;;;;;-128.00;-1.00;-1.00;18859;298;7504649;-33
2023/04/12 03:06:08;;;;;;;7.60;5.10;;;;;;;-128.00;-1.00;-1.00;18865;313;7504222;-31
2023/04/12 03:08:35;;;;;;;5.30;3.40;;;;;;;-128.00;-1.00;-1.00;18849;297;7504278;-30
2023/04/12 03:11:01;;;;;;;6.90;4.00;;;;;;;-128.00;-1.00;-1.00;18872;297;7504866;-33
2023/04/12 03:13:27;;;;;;;11.10;4.10;;;;;;;-128.00;-1.00;-1.00;18863;299;7505764;-30
2023/04/12 03:15:55;;;;;;;4.80;2.40;;;;;;;-128.00;-1.00;-1.00;18874;298;7505115;-31
2023/04/12 03:18:22;;;;;;;6.10;3.20;;;;;;;-128.00;-1.00;-1.00;18468;298;7504699;-34
2023/04/12 03:20:48;;;;;;;3.50;2.30;;;;;;;-128.00;-1.00;-1.00;18468;338;7504887;-34
2023/04/12 03:23:13;;;;;;;10.60;3.30;;;;;;;-128.00;-1.00;-1.00;18454;338;7505145;-34
2023/04/12 03:25:40;;;;;;;10.90;3.20;;;;;;;-128.00;-1.00;-1.00;18474;298;7505779;-34
2023/04/12 03:28:05;;;;;;;2.50;2.00;;;;;;;-128.00;-1.00;-1.00;18452;302;7507277;-34
2023/04/12 03:30:31;;;;;;;9.50;5.10;;;;;;;-128.00;-1.00;-1.00;18466;298;7504881;-34
2023/04/12 03:32:57;;;;;;;6.60;3.80;;;;;;;-128.00;-1.00;-1.00;18860;298;7504961;-31
2023/04/12 03:35:23;;;;;;;10.40;3.90;;;;;;;-128.00;-1.00;-1.00;18882;349;7504486;-33
2023/04/12 03:37:50;;;;;;;5.00;2.80;;;;;;;-128.00;-1.00;-1.00;18860;298;7504784;-31
2023/04/12 03:40:16;;;;;;;4.40;1.30;;;;;;;-128.00;-1.00;-1.00;18465;350;7504613;-32
2023/04/12 03:42:41;;;;;;;4.30;1.80;;;;;;;-128.00;-1.00;-1.00;18443;298;7504463;-34
2023/04/12 03:45:08;;;;;;;9.10;4.40;;;;;;;-128.00;-1.00;-1.00;18450;298;7506544;-31
2023/04/12 03:47:33;;;;;;;9.00;3.90;;;;;;;-128.00;-1.00;-1.00;18455;298;7504800;-30
2023/04/12 03:50:06;;;;;;;12.10;3.80;;;;;;;-128.00;-1.00;-1.00;18473;298;7504821;-30
2023/04/12 03:52:33;;;;;;;8.40;3.90;;;;;;;-128.00;-1.00;-1.00;18453;297;7504699;-31
2023/04/12 03:54:58;;;;;;;6.80;3.60;;;;;;;-128.00;-1.00;-1.00;18450;305;7505339;-29
2023/04/12 03:57:24;;;;;;;4.90;3.40;;;;;;;-128.00;-1.00;-1.00;18478;298;7505033;-29
2023/04/12 03:59:51;;;;;;;10.50;4.40;;;;;;;-128.00;-1.00;-1.00;18460;298;7504177;-29
2023/04/12 04:02:16;;;;;;;10.30;4.00;;;;;;;-128.00;-1.00;-1.00;18464;321;7505588;-31
2023/04/12 04:04:42;;;;;;;8.80;3.90;;;;;;;-128.00;-1.00;-1.00;18445;297;7504284;-30
2023/04/12 04:07:10;;;;;;;6.10;2.90;;;;;;;-128.00;-1.00;-1.00;18446;298;7505851;-33
2023/04/12 04:09:35;;;;;;;12.80;4.10;;;;;;;-128.00;-1.00;-1.00;18457;309;7505104;-35
2023/04/12 04:12:01;;;;;;;6.90;3.20;;;;;;;-128.00;-1.00;-1.00;18825;300;7504425;-34
2023/04/12 04:14:27;;;;;;;6.50;3.30;;;;;;;-128.00;-1.00;-1.00;18873;298;7504683;-34
2023/04/12 04:16:54;;;;;;;4.90;2.90;;;;;;;-128.00;-1.00;-1.00;18868;298;7504966;-30
2023/04/12 04:19:20;;;;;;;8.00;3.60;;;;;;;-128.00;-1.00;-1.00;18457;298;7504903;-31
2023/04/12 04:21:46;;;;;;;10.90;4.10;;;;;;;-128.00;-1.00;-1.00;18463;342;7503993;-34
2023/04/12 04:24:13;;;;;;;9.00;3.70;;;;;;;-128.00;-1.00;-1.00;18469;298;7504622;-34
2023/04/12 04:26:38;;;;;;;8.30;4.30;;;;;;;-128.00;-1.00;-1.00;18472;298;7504820;-31
2023/04/12 04:29:05;;;;;;;8.00;4.40;;;;;;;-128.00;-1.00;-1.00;18462;289;7505403;-30
2023/04/12 04:31:32;;;;;;;7.50;3.60;;;;;;;-128.00;-1.00;-1.00;18457;298;7504858;-34
2023/04/12 04:34:04;;;;;;;5.30;2.80;;;;;;;-128.00;-1.00;-1.00;18494;298;7504507;-34
2023/04/12 05:16:26;;;;;;;7.40;4.60;;;;;;;-102.16;19.20;19775.37;19558;288;8046043;-31
2023/04/12 05:18:53;;;;;;;6.80;3.70;;;;;;;-128.00;-1.00;-1.00;18171;296;7506202;-35
2023/04/12 05:21:19;;;;;;;10.60;3.70;;;;;;;-128.00;-1.00;-1.00;18884;288;7504694;-31
2023/04/12 05:23:46;;;;;;;8.80;4.10;;;;;;;-128.00;-1.00;-1.00;18869;296;7505005;-34
2023/04/12 05:26:11;;;;;;;14.50;3.80;;;;;;;-128.00;-1.00;-1.00;18464;296;7506048;-34
2023/04/12 05:28:37;;;;;;;4.10;2.50;;;;;;;-128.00;-1.00;-1.00;18499;296;7506184;-34
2023/04/12 05:31:04;;;;;;;5.20;3.10;;;;;;;-128.00;-1.00;-1.00;18468;288;7506065;-35
2023/04/12 05:33:30;;;;;;;4.80;4.00;;;;;;;-128.00;-1.00;-1.00;18450;297;7505188;-35
2023/04/12 05:35:56;;;;;;;4.60;2.40;;;;;;;-128.00;-1.00;-1.00;18466;296;7503832;-35
2023/04/12 05:38:22;;;;;;;6.10;3.70;;;;;;;-128.00;-1.00;-1.00;18478;288;7505512;-31
2023/04/12 05:40:51;;;;;;;15.30;3.60;;;;;;;-128.00;-1.00;-1.00;18480;296;7504684;-30
2023/04/12 05:43:17;;;;;;;6.70;3.80;;;;;;;-128.00;-1.00;-1.00;18501;297;7504622;-30
2023/04/12 05:45:43;;;;;;;7.20;3.90;;;;;;;-128.00;-1.00;-1.00;18870;288;7506430;-34
2023/04/12 05:48:09;;;;;;;15.20;3.60;;;;;;;-128.00;-1.00;-1.00;18892;296;7505044;-34
2023/04/12 05:50:35;;;;;;;5.50;2.90;;;;;;;-128.00;-1.00;-1.00;18876;296;7505220;-34
2023/04/12 05:53:02;;;;;;;9.20;4.30;;;;;;;-128.00;-1.00;-1.00;18851;288;7504988;-30
2023/04/12 05:55:28;;;;;;;6.40;3.10;;;;;;;-128.00;-1.00;-1.00;18849;297;7504141;-31
2023/04/12 05:57:55;;;;;;;5.90;3.70;;;;;;;-128.00;-1.00;-1.00;18886;296;7504246;-30
2023/04/12 06:00:22;;;;;;;7.40;4.00;;;;;;;-128.00;-1.00;-1.00;18861;305;7504478;-30
2023/04/12 06:02:49;;;;;;;9.60;3.90;;;;;;;-128.00;-1.00;-1.00;18474;296;7504523;-34
2023/04/12 06:05:16;;;;;;;3.70;2.50;;;;;;;-128.00;-1.00;-1.00;18464;296;7505738;-30
2023/04/12 06:07:45;;;;;;;5.40;3.00;;;;;;;-128.00;-1.00;-1.00;18457;288;7505817;-30
2023/04/12 06:10:12;;;;;;;11.10;4.20;;;;;;;-128.00;-1.00;-1.00;18465;296;7504468;-29
2023/04/12 06:12:38;;;;;;;6.40;3.90;;;;;;;-128.00;-1.00;-1.00;18479;324;7506221;-34
2023/04/12 06:15:05;;;;;;;3.70;2.50;;;;;;;-128.00;-1.00;-1.00;18477;288;7506041;-34
2023/04/12 06:17:31;;;;;;;4.30;3.30;;;;;;;-128.00;-1.00;-1.00;18479;285;7504954;-31
2023/04/12 06:19:57;;;;;;;10.50;4.40;;;;;;;-128.00;-1.00;-1.00;18471;309;7505775;-31
2023/04/12 06:22:23;;;;;;;9.50;3.80;;;;;;;-128.00;-1.00;-1.00;18880;289;7506174;-31
2023/04/12 06:24:49;;;;;;;4.80;2.90;;;;;;;-128.00;-1.00;-1.00;18882;296;7505360;-35
2023/04/12 06:27:16;;;;;;;4.10;2.80;;;;;;;-128.00;-1.00;-1.00;18892;285;7505429;-34
2023/04/12 06:29:42;;;;;;;8.30;3.10;;;;;;;-128.00;-1.00;-1.00;18881;296;7504368;-30
2023/04/12 06:32:08;;;;;;;6.60;3.20;;;;;;;-128.00;-1.00;-1.00;18876;289;7504164;-31
2023/04/12 06:34:35;;;;;;;4.40;3.10;;;;;;;-128.00;-1.00;-1.00;18869;285;7504863;-32
2023/04/12 06:37:01;;;;;;;5.30;3.10;;;;;;;-128.00;-1.00;-1.00;18482;285;7504856;-32
2023/04/12 06:39:26;;;;;;;6.20;2.40;;;;;;;-128.00;-1.00;-1.00;18478;285;7504105;-31
2023/04/12 06:41:54;;;;;;;9.60;3.30;;;;;;;-128.00;-1.00;-1.00;18873;288;7504586;-32
2023/04/12 06:44:19;;;;;;;4.00;2.50;;;;;;;-128.00;-1.00;-1.00;18468;296;7504172;-36
2023/04/12 06:46:45;;;;;;;4.30;2.50;;;;;;;-128.00;-1.00;-1.00;18445;297;7505339;-36
2023/04/12 06:49:11;;;;;;;8.00;2.90;;;;;;;-128.00;-1.00;-1.00;18479;296;7504926;-36
2023/04/12 06:51:37;;;;;;;4.30;2.60;;;;;;;-128.00;-1.00;-1.00;18889;319;7505387;-31
2023/04/12 06:54:03;;;;;;;4.30;3.10;;;;;;;-128.00;-1.00;-1.00;18886;288;7504481;-37
2023/04/12 06:56:29;;;;;;;4.70;3.60;;;;;;;-128.00;-1.00;-1.00;18888;296;7504897;-35
2023/04/12 06:58:56;;;;;;;6.40;3.70;;;;;;;-128.00;-1.00;-1.00;18891;319;7504779;-32
2023/04/12 07:01:22;;;;;;;5.30;1.90;;;;;;;-128.00;-1.00;-1.00;18875;296;7504515;-32
2023/04/12 07:03:48;;;;;;;5.70;3.00;;;;;;;-128.00;-1.00;-1.00;18870;289;7505341;-32
2023/04/12 07:06:14;;;;;;;9.30;3.00;;;;;;;-128.00;-1.00;-1.00;18849;298;7504931;-31
2023/04/12 07:08:40;;;;;;;6.60;3.10;;;;;;;-128.00;-1.00;-1.00;18878;289;7505797;-34
2023/04/12 07:11:06;;;;;;;7.70;3.40;;;;;;;-128.00;-1.00;-1.00;18877;296;7504804;-35
2023/04/12 07:13:33;;;;;;;5.30;3.10;;;;;;;-128.00;-1.00;-1.00;18859;297;7505221;-35
2023/04/12 07:15:59;;;;;;;3.10;2.90;;;;;;;-128.00;-1.00;-1.00;18455;297;7506775;-35
2023/04/12 07:18:25;;;;;;;5.00;2.70;;;;;;;-128.00;-1.00;-1.00;18484;289;7505549;-35
2023/04/12 07:20:53;;;;;;;4.30;3.00;;;;;;;-128.00;-1.00;-1.00;18469;296;7504546;-31
2023/04/12 07:23:19;;;;;;;3.10;2.50;;;;;;;-128.00;-1.00;-1.00;18452;288;7505585;-31
2023/04/12 07:25:45;;;;;;;6.40;3.90;;;;;;;-128.00;-1.00;-1.00;18454;288;7504761;-37
2023/04/12 07:28:10;;;;;;;8.80;2.90;;;;;;;-128.00;-1.00;-1.00;18487;348;7504265;-32
2023/04/12 07:30:40;;;;;;;3.70;3.10;;;;;;;-128.00;-1.00;-1.00;18848;296;7504594;-34
2023/04/12 07:33:06;;;;;;;3.30;2.80;;;;;;;-128.00;-1.00;-1.00;18491;348;7505916;-31
2023/04/12 07:35:32;;;;;;;3.50;3.00;;;;;;;-128.00;-1.00;-1.00;18462;285;7505058;-36
2023/04/12 07:37:57;;;;;;;4.30;3.60;;;;;;;-128.00;-1.00;-1.00;18490;296;7504419;-32
2023/04/12 07:40:23;;;;;;;8.90;2.50;;;;;;;-128.00;-1.00;-1.00;18486;296;7504729;-36
2023/04/12 07:42:49;;;;;;;10.90;2.70;;;;;;;-128.00;-1.00;-1.00;18465;296;7505124;-36
2023/04/12 07:45:14;;;;;;;4.20;2.80;;;;;;;-128.00;-1.00;-1.00;18484;289;7505957;-36
2023/04/12 07:47:40;;;;;;;5.10;2.40;;;;;;;-128.00;-1.00;-1.00;18474;307;7504521;-36
2023/04/12 07:50:06;;;;;;;3.00;2.40;;;;;;;-128.00;-1.00;-1.00;18457;296;7505021;-33
2023/04/12 07:52:32;;;;;;;3.10;2.60;;;;;;;-128.00;-1.00;-1.00;18440;298;7506202;-35
2023/04/12 07:54:58;;;;;;;3.60;2.40;;;;;;;-128.00;-1.00;-1.00;18883;348;7504317;-35
2023/04/12 07:57:25;;;;;;;2.80;2.50;;;;;;;-128.00;-1.00;-1.00;18883;297;7505071;-31
2023/04/12 07:59:51;;;;;;;3.10;2.40;;;;;;;-128.00;-1.00;-1.00;18486;296;7505180;-31
2023/04/12 08:02:23;;;;;;;2.00;1.70;;;;;;;-128.00;-1.00;-1.00;18474;288;7505943;-35
2023/04/12 08:04:50;;;;;;;4.50;2.10;;;;;;;-128.00;-1.00;-1.00;18517;308;7506388;-36
2023/04/12 08:07:16;;;;;;;8.50;2.00;;;;;;;-128.00;-1.00;-1.00;18480;285;7504272;-32
2023/04/12 08:09:41;;;;;;;3.80;2.60;;;;;;;-128.00;-1.00;-1.00;18470;296;7506056;-32
2023/04/12 08:12:07;;;;;;;5.30;2.60;;;;;;;-128.00;-1.00;-1.00;18884;288;7506271;-35
2023/04/12 08:14:34;;;;;;;2.70;1.60;;;;;;;-128.00;-1.00;-1.00;18890;296;7504463;-35
2023/04/12 08:17:00;;;;;;;1.80;1.30;;;;;;;-128.00;-1.00;-1.00;18473;297;7504785;-32
2023/04/12 08:19:26;;;;;;;1.40;1.00;;;;;;;-128.00;-1.00;-1.00;18494;297;7505326;-35
2023/04/12 08:21:52;;;;;;;2.50;1.60;;;;;;;-128.00;-1.00;-1.00;18457;305;7505234;-33
2023/04/12 08:24:18;;;;;;;2.10;1.10;;;;;;;-128.00;-1.00;-1.00;18486;296;7506493;-32
2023/04/12 08:26:45;;;;;;;2.40;1.50;;;;;;;-128.00;-1.00;-1.00;18484;296;7504697;-32
2023/04/12 08:29:11;;;;;;;2.40;2.10;;;;;;;-128.00;-1.00;-1.00;18458;296;7504932;-32
2023/04/12 08:31:37;;;;;;;5.80;1.10;;;;;;;-128.00;-1.00;-1.00;18466;300;7505123;-32
2023/04/12 08:34:02;;;;;;;2.30;1.50;;;;;;;-128.00;-1.00;-1.00;18496;296;7504844;-35
2023/04/12 08:36:28;;;;;;;2.90;1.40;;;;;;;-128.00;-1.00;-1.00;18868;285;7504311;-35
2023/04/12 08:39:01;;;;;;;4.50;1.60;;;;;;;-128.00;-1.00;-1.00;18861;296;7505348;-31
2023/04/12 08:41:27;;;;;;;;;;;;;;;-128.00;-1.00;-1.00;18474;336;7504383;-32
2023/04/12 08:43:54;;;;;;;3.50;3.00;;;;;;;-128.00;-1.00;-1.00;18474;296;7505943;-36
2023/04/12 08:46:20;;;;;;;5.60;2.70;;;;;;;-128.00;-1.00;-1.00;18472;289;7505787;-36
2023/04/12 08:48:48;;;;;;;4.50;2.80;;;;;;;-128.00;-1.00;-1.00;18458;298;7505796;-32
2023/04/12 08:51:16;;;;;;;1.60;1.20;;;;;;;-128.00;-1.00;-1.00;18467;296;7504460;-36
2023/04/12 08:53:42;;;;;;;1.30;1.20;;;;;;;-128.00;-1.00;-1.00;18435;296;7506099;-32
2023/04/12 08:56:10;;;;;;;4.50;1.60;;;;;;;-128.00;-1.00;-1.00;18438;296;7504354;-37
2023/04/12 08:58:38;;;;;;;6.80;1.40;;;;;;;-128.00;-1.00;-1.00;18458;289;7504081;-32
2023/04/12 09:01:09;;;;;;;1.60;1.40;;;;;;;-128.00;-1.00;-1.00;18477;289;7506178;-33
2023/04/12 09:03:35;;;;;;;2.20;1.10;;;;;;;-128.00;-1.00;-1.00;18445;299;7504873;-36
2023/04/12 09:06:04;;;;;;;3.00;1.20;;;;;;;-128.00;-1.00;-1.00;18474;289;7504216;-36
2023/04/12 09:08:30;;;;;;;1.80;1.20;;;;;;;-128.00;-1.00;-1.00;18469;289;7506760;-36
2023/04/12 09:10:57;;;;;;;4.70;1.30;;;;;;;-128.00;-1.00;-1.00;18863;289;7505138;-33
2023/04/12 09:13:31;;;;;;;1.60;1.20;;;;;;;-128.00;-1.00;-1.00;18846;304;7504302;-32
2023/04/12 09:15:56;;;;;;;4.60;1.10;;;;;;;-128.00;-1.00;-1.00;18443;296;7504913;-35
2023/04/12 09:18:23;;;;;;;1.40;0.90;;;;;;;-128.00;-1.00;-1.00;18485;296;7504624;-34
2023/04/12 09:20:48;;;;;;;0.90;0.80;;;;;;;-128.00;-1.00;-1.00;18457;296;7504545;-36
2023/04/12 09:23:17;;;;;;;1.20;0.70;;;;;;;-128.00;-1.00;-1.00;18458;289;7504403;-35
2023/04/12 09:25:47;;;;;;;2.40;1.10;;;;;;;-128.00;-1.00;-1.00;18444;296;7504740;-35
2023/04/12 09:28:24;;;;;;;4.30;1.20;;;;;;;-128.00;-1.00;-1.00;18467;308;7505953;-35
2023/04/12 09:30:51;;;;;;;1.80;1.10;;;;;;;-128.00;-1.00;-1.00;18476;308;7506255;-35
2023/04/12 09:33:22;;;;;;;1.00;0.70;;;;;;;-128.00;-1.00;-1.00;18463;289;7505234;-36
2023/04/12 09:35:47;;;;;;;3.40;1.00;;;;;;;-128.00;-1.00;-1.00;18468;296;7506334;-32
2023/04/12 09:38:13;;;;;;;2.80;2.20;;;;;;;-128.00;-1.00;-1.00;18459;299;7505147;-35
2023/04/12 09:40:39;;;;;;;3.70;1.60;;;;;;;-128.00;-1.00;-1.00;18453;285;7506126;-32
2023/04/12 09:43:05;;;;;;;10.70;3.00;;;;;;;-128.00;-1.00;-1.00;18489;296;7505438;-34
2023/04/12 09:45:33;;;;;;;3.90;2.90;;;;;;;-128.00;-1.00;-1.00;18486;285;7504232;-31
2023/04/12 09:47:59;;;;;;;2.20;0.90;;;;;;;-128.00;-1.00;-1.00;18465;285;7505018;-35
2023/04/12 09:50:27;;;;;;;1.70;1.20;;;;;;;-128.00;-1.00;-1.00;18490;296;7504576;-31
2023/04/12 09:52:53;;;;;;;1.40;1.00;;;;;;;-128.00;-1.00;-1.00;18484;296;7505056;-35
2023/04/12 09:55:24;;;;;;;1.00;0.90;;;;;;;-128.00;-1.00;-1.00;18470;304;7505347;-32
2023/04/12 09:57:50;;;;;;;1.50;1.20;;;;;;;-128.00;-1.00;-1.00;18478;296;7505642;-35
2023/04/12 10:00:17;;;;;;;1.40;0.60;;;;;;;-128.00;-1.00;-1.00;18453;296;7506076;-35
2023/04/12 10:02:45;;;;;;;1.10;0.50;;;;;;;-128.00;-1.00;-1.00;18458;285;7505279;-35
2023/04/12 10:05:15;;;;;;;1.40;0.70;;;;;;;-128.00;-1.00;-1.00;18456;285;7506016;-35
2023/04/12 10:07:41;;;;;;;1.70;0.70;;;;;;;-128.00;-1.00;-1.00;18446;289;7504746;-34
2023/04/12 10:10:08;;;;;;;2.20;1.20;;;;;;;-128.00;-1.00;-1.00;18468;285;7505179;-35
2023/04/12 10:12:35;;;;;;;6.30;2.10;;;;;;;-128.00;-1.00;-1.00;18465;300;7504937;-35
2023/04/12 10:15:12;;;;;;;2.70;0.80;;;;;;;-128.00;-1.00;-1.00;18477;296;7505446;-31
2023/04/12 10:17:47;;;;;;;2.10;0.80;;;;;;;-128.00;-1.00;-1.00;18485;288;7504737;-35
2023/04/12 10:20:14;;;;;;;1.50;0.50;;;;;;;-128.00;-1.00;-1.00;18475;285;7504872;-35
2023/04/12 10:22:41;;;;;;;0.80;0.60;;;;;;;-128.00;-1.00;-1.00;18470;285;7504286;-32
2023/04/12 10:25:12;;;;;;;1.30;1.10;;;;;;;-128.00;-1.00;-1.00;18471;289;7504940;-35
2023/04/12 10:27:42;;;;;;;1.50;1.00;;;;;;;-128.00;-1.00;-1.00;18496;296;7506136;-35
2023/04/12 10:30:24;;;;;;;4.70;1.10;;;;;;;-128.00;-1.00;-1.00;18483;289;7504212;-35
2023/04/12 10:33:11;;;;;;;1.60;0.80;;;;;;;-128.00;-1.00;-1.00;18487;285;7504120;-31
2023/04/12 10:35:58;;;;;;;1.50;1.00;;;;;;;-128.00;-1.00;-1.00;18492;289;7505248;-35
2023/04/12 10:38:26;;;;;;;0.90;0.70;;;;;;;-128.00;-1.00;-1.00;18464;288;7505656;-31
2023/04/12 10:41:16;;;;;;;2.60;0.60;;;;;;;-128.00;-1.00;-1.00;18483;296;7506523;-32
2023/04/12 10:43:43;;;;;;;5.10;0.50;;;;;;;-128.00;-1.00;-1.00;18468;285;7504541;-35
2023/04/12 10:46:16;;;;;;;1.40;0.20;;;;;;;-128.00;-1.00;-1.00;18447;297;7504262;-35
2023/04/12 10:48:49;;;;;;;1.60;0.50;;;;;;;-128.00;-1.00;-1.00;18472;289;7504331;-35
2023/04/12 10:51:27;;;;;;;0.50;0.50;;;;;;;-128.00;-1.00;-1.00;18473;289;7504321;-31
2023/04/12 10:53:55;;;;;;;1.50;0.30;;;;;;;-128.00;-1.00;-1.00;18471;297;7504629;-31
2023/04/12 10:56:33;;;;;;;2.60;0.50;;;;;;;-128.00;-1.00;-1.00;18467;285;7506177;-34
2023/04/12 10:59:00;;;;;;;1.00;0.30;;;;;;;-128.00;-1.00;-1.00;18525;289;7505387;-34
2023/04/12 11:01:26;;;;;;;0.90;0.40;;;;;;;-128.00;-1.00;-1.00;18482;296;7505994;-35
2023/04/12 11:04:16;;;;;;;3.30;0.50;;;;;;;-128.00;-1.00;-1.00;18486;285;7504688;-31
2023/04/12 11:45:55;;;;;;;1.40;0.40;;;;;;;-99.66;9.12;19725.51;98436;293;1543504;-30
2023/04/12 11:48:21;;;;;;;1.70;0.60;;;;;;;-128.00;-1.00;-1.00;81354;293;7504225;-31
2023/04/12 11:50:49;;;;;;;1.00;0.30;;;;;;;-128.00;-1.00;-1.00;41455;293;7506742;-34
2023/04/12 11:53:16;;;;;;;1.30;0.50;;;;;;;-128.00;-1.00;-1.00;18925;293;7504416;-34
2023/04/12 11:55:50;;;;;;;0.60;0.40;;;;;;;-128.00;-1.00;-1.00;18524;335;7504705;-35
2023/04/12 11:58:16;;;;;;;1.70;0.50;;;;;;;-128.00;-1.00;-1.00;18521;293;7505036;-32
2023/04/12 12:00:43;;;;;;;2.00;1.10;;;;;;;-128.00;-1.00;-1.00;18479;294;7504853;-35
2023/04/12 12:03:09;;;;;;;1.60;0.50;;;;;;;-128.00;-1.00;-1.00;18513;294;7504981;-35
2023/04/12 12:05:38;;;;;;;1.20;0.30;;;;;;;-128.00;-1.00;-1.00;18510;293;7506752;-35
2023/04/12 12:08:06;;;;;;;1.80;0.40;;;;;;;-128.00;-1.00;-1.00;18478;295;7506247;-32
2023/04/12 12:10:34;;;;;;;2.00;0.20;;;;;;;-128.00;-1.00;-1.00;18536;293;7504384;-36
2023/04/12 12:13:01;;;;;;;1.60;0.40;;;;;;;-128.00;-1.00;-1.00;18496;293;7504774;-36
2023/04/12 12:15:30;;;;;;;4.40;0.40;;;;;;;-128.00;-1.00;-1.00;18487;293;7505991;-32
2023/04/12 12:17:56;;;;;;;1.10;0.60;;;;;;;-128.00;-1.00;-1.00;18516;294;7506007;-32
2023/04/12 12:20:23;;;;;;;1.30;0.70;;;;;;;-128.00;-1.00;-1.00;18495;312;7504637;-36
2023/04/12 12:22:49;;;;;;;1.40;0.40;;;;;;;-128.00;-1.00;-1.00;18526;293;7504331;-35
2023/04/12 12:25:17;;;;;;;4.20;0.70;;;;;;;-128.00;-1.00;-1.00;18508;294;7505273;-36
2023/04/12 12:27:47;;;;;;;2.80;0.40;;;;;;;-128.00;-1.00;-1.00;18492;293;7504702;-36
2023/04/12 12:30:15;;;;;;;2.10;0.70;;;;;;;-128.00;-1.00;-1.00;18519;309;7504900;-32
2023/04/12 12:32:41;;;;;;;0.60;0.40;;;;;;;-128.00;-1.00;-1.00;18528;293;7504663;-33
2023/04/12 12:35:14;;;;;;;0.80;0.20;;;;;;;-128.00;-1.00;-1.00;18502;293;7506440;-33
2023/04/12 12:37:54;;;;;;;1.30;0.50;;;;;;;-128.00;-1.00;-1.00;18485;339;7504510;-36
2023/04/12 12:40:32;;;;;;;5.10;0.70;;;;;;;-128.00;-1.00;-1.00;18478;295;7505389;-36
2023/04/12 12:42:58;;;;;;;0.70;0.30;;;;;;;-128.00;-1.00;-1.00;18472;295;7505797;-36
2023/04/12 12:45:25;;;;;;;0.50;0.50;;;;;;;-128.00;-1.00;-1.00;18524;293;7504581;-35
2023/04/12 12:48:04;;;;;;;1.40;0.60;;;;;;;-128.00;-1.00;-1.00;18491;294;7504357;-35
2023/04/12 12:50:32;;;;;;;1.90;0.40;;;;;;;-128.00;-1.00;-1.00;18504;293;7505840;-32
2023/04/12 12:52:59;;;;;;;3.20;0.60;;;;;;;-128.00;-1.00;-1.00;18502;294;7505200;-35